Moose Lake, Canada
Current Conditions -  °F | °C
As of 7:00 AM on Thursday 18 Dec 2014 (Local Time) from CYQD Reporting Station
Light Snow Light Snow  
Wind Chill: -2°   Ceiling: 1300
Heat Index:   Visibility: 9mi
Dew Point:   Wind: 5mph
Humidity: 92%   Direction: 140°SE
Pressure: 30.05"   Gusts: NA
Location:  53.7°N, 100.3°W
Report Text: CYQD 181300Z 14004KT 9SM -SN OVC013 M14/M15 A3005 RMK SC8 SLP198
Loading
Personal Weather Stations






























Interactive Weather Map New forecast layout! Learn more

10-Day Weather Forecast

Advertisements
Track Severe Weather on mobile